Terminal Aerodrome Forecast
Issued by NWS

Home | Current Version | Previous Version | Text Only | Print | Product List | Glossary On
Versions: 1 2 3 4 5 6 7 8 9 10 11 12 13
000
FTUS45 KTFX 300533
TAFLWT
TAF
KLWT 300533Z 3006/0106 VRB06KT P6SM VCSH SCT080 BKN100
      TEMPO 3006/3009 -SHRA BKN070
     FM301000 26010KT P6SM BKN120
     FM301700 31018G25KT P6SM SCT070
     FM010000 27008KT P6SM SKC=

USA.gov is the U.S. government's official web portal to all federal, state and local government web resources and services.